sensor_id;sensor_type;location;lat;lon;timestamp;temperature;humidity
15983;DHT22;14442;50.196;8.096;2022-11-20T00:02:17;21.10;47.40
15983;DHT22;14442;50.196;8.096;2022-11-20T00:04:44;21.10;47.40
15983;DHT22;14442;50.196;8.096;2022-11-20T00:07:11;21.10;47.40
15983;DHT22;14442;50.196;8.096;2022-11-20T00:09:38;21.00;47.40
15983;DHT22;14442;50.196;8.096;2022-11-20T00:12:05;21.00;47.40
15983;DHT22;14442;50.196;8.096;2022-11-20T00:14:33;21.10;47.40
15983;DHT22;14442;50.196;8.096;2022-11-20T00:16:59;21.00;47.30
15983;DHT22;14442;50.196;8.096;2022-11-20T00:19:27;21.00;47.20
15983;DHT22;14442;50.196;8.096;2022-11-20T00:21:54;21.00;47.10
15983;DHT22;14442;50.196;8.096;2022-11-20T00:24:21;20.90;47.00
15983;DHT22;14442;50.196;8.096;2022-11-20T00:26:47;20.90;47.10
15983;DHT22;14442;50.196;8.096;2022-11-20T00:29:14;20.90;47.10
15983;DHT22;14442;50.196;8.096;2022-11-20T00:31:42;20.90;47.10
15983;DHT22;14442;50.196;8.096;2022-11-20T00:34:09;20.90;47.20
15983;DHT22;14442;50.196;8.096;2022-11-20T00:36:36;20.90;47.10
15983;DHT22;14442;50.196;8.096;2022-11-20T00:39:03;20.90;47.10
15983;DHT22;14442;50.196;8.096;2022-11-20T00:41:30;20.90;47.10
15983;DHT22;14442;50.196;8.096;2022-11-20T00:43:56;20.90;47.10
15983;DHT22;14442;50.196;8.096;2022-11-20T00:46:24;20.90;47.00
15983;DHT22;14442;50.196;8.096;2022-11-20T00:48:53;20.90;47.00
15983;DHT22;14442;50.196;8.096;2022-11-20T00:51:21;20.90;47.00
15983;DHT22;14442;50.196;8.096;2022-11-20T00:53:48;21.00;47.00
15983;DHT22;14442;50.196;8.096;2022-11-20T00:56:17;21.00;47.10
15983;DHT22;14442;50.196;8.096;2022-11-20T00:58:46;21.00;46.90
15983;DHT22;14442;50.196;8.096;2022-11-20T01:01:15;21.00;46.80
15983;DHT22;14442;50.196;8.096;2022-11-20T01:03:43;21.00;46.90
15983;DHT22;14442;50.196;8.096;2022-11-20T01:06:13;21.00;46.90
15983;DHT22;14442;50.196;8.096;2022-11-20T01:08:40;21.00;46.80
15983;DHT22;14442;50.196;8.096;2022-11-20T01:11:09;21.00;46.70
15983;DHT22;14442;50.196;8.096;2022-11-20T01:13:37;21.00;46.70
15983;DHT22;14442;50.196;8.096;2022-11-20T01:16:05;21.00;46.70
15983;DHT22;14442;50.196;8.096;2022-11-20T01:18:32;21.00;46.90
15983;DHT22;14442;50.196;8.096;2022-11-20T01:21:01;21.00;46.80
15983;DHT22;14442;50.196;8.096;2022-11-20T01:23:32;21.00;46.70
15983;DHT22;14442;50.196;8.096;2022-11-20T01:26:00;21.00;46.70
15983;DHT22;14442;50.196;8.096;2022-11-20T01:28:28;21.00;46.70
15983;DHT22;14442;50.196;8.096;2022-11-20T01:30:55;21.00;46.70
15983;DHT22;14442;50.196;8.096;2022-11-20T01:33:22;21.00;46.80
15983;DHT22;14442;50.196;8.096;2022-11-20T01:35:49;21.00;46.80
15983;DHT22;14442;50.196;8.096;2022-11-20T01:38:16;21.00;46.80
15983;DHT22;14442;50.196;8.096;2022-11-20T01:40:44;20.90;46.70
15983;DHT22;14442;50.196;8.096;2022-11-20T01:43:14;20.90;46.70
15983;DHT22;14442;50.196;8.096;2022-11-20T01:46:00;20.90;46.70
15983;DHT22;14442;50.196;8.096;2022-11-20T01:48:32;20.90;46.60
15983;DHT22;14442;50.196;8.096;2022-11-20T01:51:00;20.90;46.80
15983;DHT22;14442;50.196;8.096;2022-11-20T01:53:32;20.90;46.70
15983;DHT22;14442;50.196;8.096;2022-11-20T01:56:02;20.90;46.90
15983;DHT22;14442;50.196;8.096;2022-11-20T01:58:32;20.90;46.70
15983;DHT22;14442;50.196;8.096;2022-11-20T02:01:00;20.90;46.80
15983;DHT22;14442;50.196;8.096;2022-11-20T02:03:27;20.90;46.80
15983;DHT22;14442;50.196;8.096;2022-11-20T02:06:00;20.90;46.90
15983;DHT22;14442;50.196;8.096;2022-11-20T02:08:28;20.90;46.70
15983;DHT22;14442;50.196;8.096;2022-11-20T02:10:55;20.90;46.80
15983;DHT22;14442;50.196;8.096;2022-11-20T02:13:23;20.90;46.70
15983;DHT22;14442;50.196;8.096;2022-11-20T02:16:10;20.80;46.70
15983;DHT22;14442;50.196;8.096;2022-11-20T02:18:37;20.90;46.80
15983;DHT22;14442;50.196;8.096;2022-11-20T02:21:09;20.90;46.70
15983;DHT22;14442;50.196;8.096;2022-11-20T02:26:13;20.90;46.70
15983;DHT22;14442;50.196;8.096;2022-11-20T02:28:40;20.90;46.50
15983;DHT22;14442;50.196;8.096;2022-11-20T02:31:07;20.90;46.70
15983;DHT22;14442;50.196;8.096;2022-11-20T02:33:34;20.80;46.60
15983;DHT22;14442;50.196;8.096;2022-11-20T02:36:01;20.80;46.80
15983;DHT22;14442;50.196;8.096;2022-11-20T02:38:28;20.80;47.00
15983;DHT22;14442;50.196;8.096;2022-11-20T02:40:54;20.80;47.00
15983;DHT22;14442;50.196;8.096;2022-11-20T02:43:22;20.70;46.90
15983;DHT22;14442;50.196;8.096;2022-11-20T02:45:49;20.70;46.90
15983;DHT22;14442;50.196;8.096;2022-11-20T02:48:16;20.70;46.90
15983;DHT22;14442;50.196;8.096;2022-11-20T02:50:43;20.70;46.90
15983;DHT22;14442;50.196;8.096;2022-11-20T02:53:09;20.70;46.90
15983;DHT22;14442;50.196;8.096;2022-11-20T02:55:36;20.60;46.70
15983;DHT22;14442;50.196;8.096;2022-11-20T02:58:03;20.70;47.00
15983;DHT22;14442;50.196;8.096;2022-11-20T03:00:31;20.60;47.00
15983;DHT22;14442;50.196;8.096;2022-11-20T03:02:58;20.60;46.90
15983;DHT22;14442;50.196;8.096;2022-11-20T03:05:25;20.60;47.00
15983;DHT22;14442;50.196;8.096;2022-11-20T03:07:52;20.60;46.90
15983;DHT22;14442;50.196;8.096;2022-11-20T03:10:19;20.60;46.80
15983;DHT22;14442;50.196;8.096;2022-11-20T03:12:45;20.60;46.90
15983;DHT22;14442;50.196;8.096;2022-11-20T03:15:12;20.60;46.90
15983;DHT22;14442;50.196;8.096;2022-11-20T03:17:40;20.60;46.90
15983;DHT22;14442;50.196;8.096;2022-11-20T03:20:08;20.50;46.80
15983;DHT22;14442;50.196;8.096;2022-11-20T03:22:35;20.50;46.90
15983;DHT22;14442;50.196;8.096;2022-11-20T03:25:02;20.50;46.80
15983;DHT22;14442;50.196;8.096;2022-11-20T03:27:32;20.50;46.80
15983;DHT22;14442;50.196;8.096;2022-11-20T03:29:59;20.50;46.70
15983;DHT22;14442;50.196;8.096;2022-11-20T03:32:25;20.50;46.70
15983;DHT22;14442;50.196;8.096;2022-11-20T03:34:53;20.50;46.80
15983;DHT22;14442;50.196;8.096;2022-11-20T03:37:20;20.50;46.80
15983;DHT22;14442;50.196;8.096;2022-11-20T03:39:47;20.50;46.80
15983;DHT22;14442;50.196;8.096;2022-11-20T03:42:13;20.50;46.90
15983;DHT22;14442;50.196;8.096;2022-11-20T03:44:54;20.50;46.80
15983;DHT22;14442;50.196;8.096;2022-11-20T03:47:21;20.50;46.80
15983;DHT22;14442;50.196;8.096;2022-11-20T03:49:47;20.40;46.80
15983;DHT22;14442;50.196;8.096;2022-11-20T03:52:15;20.40;46.80
15983;DHT22;14442;50.196;8.096;2022-11-20T03:54:42;20.40;46.80
15983;DHT22;14442;50.196;8.096;2022-11-20T03:57:09;20.40;46.80
15983;DHT22;14442;50.196;8.096;2022-11-20T03:59:36;20.40;46.80
15983;DHT22;14442;50.196;8.096;2022-11-20T04:02:02;20.40;46.90
15983;DHT22;14442;50.196;8.096;2022-11-20T04:04:29;20.40;47.00
15983;DHT22;14442;50.196;8.096;2022-11-20T04:06:56;20.40;47.00
15983;DHT22;14442;50.196;8.096;2022-11-20T04:09:24;20.40;47.00
15983;DHT22;14442;50.196;8.096;2022-11-20T04:11:50;20.40;46.80
15983;DHT22;14442;50.196;8.096;2022-11-20T04:14:17;20.30;46.80
15983;DHT22;14442;50.196;8.096;2022-11-20T04:16:44;20.30;46.90
15983;DHT22;14442;50.196;8.096;2022-11-20T04:19:13;20.30;46.90
15983;DHT22;14442;50.196;8.096;2022-11-20T04:21:40;20.30;47.10
15983;DHT22;14442;50.196;8.096;2022-11-20T04:24:07;20.30;47.20
15983;DHT22;14442;50.196;8.096;2022-11-20T04:26:35;20.20;47.10
15983;DHT22;14442;50.196;8.096;2022-11-20T04:29:03;20.30;47.10
15983;DHT22;14442;50.196;8.096;2022-11-20T04:31:32;20.30;47.30
15983;DHT22;14442;50.196;8.096;2022-11-20T04:34:00;20.20;47.00
15983;DHT22;14442;50.196;8.096;2022-11-20T04:36:28;20.30;47.00
15983;DHT22;14442;50.196;8.096;2022-11-20T04:38:56;20.20;47.30
15983;DHT22;14442;50.196;8.096;2022-11-20T04:41:24;20.20;47.30
15983;DHT22;14442;50.196;8.096;2022-11-20T04:43:54;20.20;47.20
15983;DHT22;14442;50.196;8.096;2022-11-20T04:46:25;20.20;47.10
15983;DHT22;14442;50.196;8.096;2022-11-20T04:48:52;20.20;47.30
15983;DHT22;14442;50.196;8.096;2022-11-20T04:51:19;20.20;47.10
15983;DHT22;14442;50.196;8.096;2022-11-20T04:53:46;20.10;47.00
15983;DHT22;14442;50.196;8.096;2022-11-20T04:56:13;20.20;47.20
15983;DHT22;14442;50.196;8.096;2022-11-20T04:58:40;20.10;47.00
15983;DHT22;14442;50.196;8.096;2022-11-20T05:01:11;20.20;47.40
15983;DHT22;14442;50.196;8.096;2022-11-20T05:03:38;20.10;47.20
15983;DHT22;14442;50.196;8.096;2022-11-20T05:06:06;20.10;47.10
15983;DHT22;14442;50.196;8.096;2022-11-20T05:08:33;20.10;47.30
15983;DHT22;14442;50.196;8.096;2022-11-20T05:11:01;20.10;47.20
15983;DHT22;14442;50.196;8.096;2022-11-20T05:13:28;20.10;47.20
15983;DHT22;14442;50.196;8.096;2022-11-20T05:15:55;20.10;47.20
15983;DHT22;14442;50.196;8.096;2022-11-20T05:18:23;20.10;47.20
15983;DHT22;14442;50.196;8.096;2022-11-20T05:20:55;20.10;47.30
15983;DHT22;14442;50.196;8.096;2022-11-20T05:23:21;20.10;47.30
15983;DHT22;14442;50.196;8.096;2022-11-20T05:25:52;20.10;47.30
15983;DHT22;14442;50.196;8.096;2022-11-20T05:28:19;20.10;47.30
15983;DHT22;14442;50.196;8.096;2022-11-20T05:30:45;20.10;47.40
15983;DHT22;14442;50.196;8.096;2022-11-20T05:33:12;20.00;47.00
15983;DHT22;14442;50.196;8.096;2022-11-20T05:35:40;20.10;47.30
15983;DHT22;14442;50.196;8.096;2022-11-20T05:38:07;20.00;47.40
15983;DHT22;14442;50.196;8.096;2022-11-20T05:40:34;20.00;47.40
15983;DHT22;14442;50.196;8.096;2022-11-20T05:43:01;20.00;47.20
15983;DHT22;14442;50.196;8.096;2022-11-20T05:45:28;20.00;47.20
15983;DHT22;14442;50.196;8.096;2022-11-20T05:47:58;20.00;47.40
15983;DHT22;14442;50.196;8.096;2022-11-20T05:50:24;20.00;47.40
15983;DHT22;14442;50.196;8.096;2022-11-20T05:52:52;20.00;47.40
15983;DHT22;14442;50.196;8.096;2022-11-20T05:55:19;20.00;47.40
15983;DHT22;14442;50.196;8.096;2022-11-20T05:57:46;20.00;47.40
15983;DHT22;14442;50.196;8.096;2022-11-20T06:00:14;20.00;47.40
15983;DHT22;14442;50.196;8.096;2022-11-20T06:02:40;20.00;47.30
15983;DHT22;14442;50.196;8.096;2022-11-20T06:05:08;19.90;47.30
15983;DHT22;14442;50.196;8.096;2022-11-20T06:07:34;19.90;47.40
15983;DHT22;14442;50.196;8.096;2022-11-20T06:10:03;19.90;47.30
15983;DHT22;14442;50.196;8.096;2022-11-20T06:12:31;19.90;47.40
15983;DHT22;14442;50.196;8.096;2022-11-20T06:14:58;19.90;47.40
15983;DHT22;14442;50.196;8.096;2022-11-20T06:17:26;19.90;47.40
15983;DHT22;14442;50.196;8.096;2022-11-20T06:19:53;19.90;47.40
15983;DHT22;14442;50.196;8.096;2022-11-20T06:22:19;19.90;47.40
15983;DHT22;14442;50.196;8.096;2022-11-20T06:24:47;19.90;47.40
15983;DHT22;14442;50.196;8.096;2022-11-20T06:27:15;19.90;47.30
15983;DHT22;14442;50.196;8.096;2022-11-20T06:29:42;19.90;47.40
15983;DHT22;14442;50.196;8.096;2022-11-20T06:32:09;19.90;47.40
15983;DHT22;14442;50.196;8.096;2022-11-20T06:34:35;19.90;47.50
15983;DHT22;14442;50.196;8.096;2022-11-20T06:37:02;19.90;47.50
15983;DHT22;14442;50.196;8.096;2022-11-20T06:39:29;19.90;47.40
15983;DHT22;14442;50.196;8.096;2022-11-20T06:41:55;19.90;47.40
15983;DHT22;14442;50.196;8.096;2022-11-20T06:44:24;19.90;47.50
15983;DHT22;14442;50.196;8.096;2022-11-20T06:46:50;19.80;47.40
15983;DHT22;14442;50.196;8.096;2022-11-20T06:49:17;19.80;47.40
15983;DHT22;14442;50.196;8.096;2022-11-20T06:51:44;19.80;47.40
15983;DHT22;14442;50.196;8.096;2022-11-20T06:54:11;19.80;47.40
15983;DHT22;14442;50.196;8.096;2022-11-20T06:56:37;19.90;47.50
15983;DHT22;14442;50.196;8.096;2022-11-20T06:59:05;19.80;47.40
15983;DHT22;14442;50.196;8.096;2022-11-20T07:01:33;19.80;47.40
15983;DHT22;14442;50.196;8.096;2022-11-20T07:04:00;19.80;47.40
15983;DHT22;14442;50.196;8.096;2022-11-20T07:06:27;19.80;47.50
15983;DHT22;14442;50.196;8.096;2022-11-20T07:08:54;19.70;47.40
15983;DHT22;14442;50.196;8.096;2022-11-20T07:11:20;19.80;47.40
15983;DHT22;14442;50.196;8.096;2022-11-20T07:13:47;19.80;47.90
15983;DHT22;14442;50.196;8.096;2022-11-20T07:16:14;19.90;46.70
15983;DHT22;14442;50.196;8.096;2022-11-20T07:18:42;19.90;46.60
15983;DHT22;14442;50.196;8.096;2022-11-20T07:21:10;20.00;46.50
15983;DHT22;14442;50.196;8.096;2022-11-20T07:23:37;20.00;46.30
15983;DHT22;14442;50.196;8.096;2022-11-20T07:26:04;20.10;46.40
15983;DHT22;14442;50.196;8.096;2022-11-20T07:28:31;20.20;46.20
15983;DHT22;14442;50.196;8.096;2022-11-20T07:30:58;20.30;46.10
15983;DHT22;14442;50.196;8.096;2022-11-20T07:33:24;20.30;45.90
15983;DHT22;14442;50.196;8.096;2022-11-20T07:35:53;20.30;45.90
15983;DHT22;14442;50.196;8.096;2022-11-20T07:38:19;20.40;46.10
15983;DHT22;14442;50.196;8.096;2022-11-20T07:40:46;20.50;46.30
15983;DHT22;14442;50.196;8.096;2022-11-20T07:43:13;20.60;46.40
15983;DHT22;14442;50.196;8.096;2022-11-20T07:45:39;20.60;46.20
15983;DHT22;14442;50.196;8.096;2022-11-20T07:48:06;20.70;46.40
15983;DHT22;14442;50.196;8.096;2022-11-20T07:50:33;20.70;46.40
15983;DHT22;14442;50.196;8.096;2022-11-20T07:53:05;20.70;46.50
15983;DHT22;14442;50.196;8.096;2022-11-20T07:55:32;20.80;46.80
15983;DHT22;14442;50.196;8.096;2022-11-20T07:57:59;20.80;46.70
15983;DHT22;14442;50.196;8.096;2022-11-20T08:00:26;20.70;46.40
15983;DHT22;14442;50.196;8.096;2022-11-20T08:02:53;20.80;46.40
15983;DHT22;14442;50.196;8.096;2022-11-20T08:05:20;20.80;46.40
15983;DHT22;14442;50.196;8.096;2022-11-20T08:07:46;20.80;46.30
15983;DHT22;14442;50.196;8.096;2022-11-20T08:10:15;20.80;46.90
15983;DHT22;14442;50.196;8.096;2022-11-20T08:12:46;20.80;46.30
15983;DHT22;14442;50.196;8.096;2022-11-20T08:15:31;20.80;46.40
15983;DHT22;14442;50.196;8.096;2022-11-20T08:18:02;20.80;46.10
15983;DHT22;14442;50.196;8.096;2022-11-20T08:20:29;20.80;46.00
15983;DHT22;14442;50.196;8.096;2022-11-20T08:23:00;20.90;46.00
15983;DHT22;14442;50.196;8.096;2022-11-20T08:25:29;20.90;46.10
15983;DHT22;14442;50.196;8.096;2022-11-20T08:27:57;20.90;46.00
15983;DHT22;14442;50.196;8.096;2022-11-20T08:30:24;21.00;46.10
15983;DHT22;14442;50.196;8.096;2022-11-20T08:32:51;21.00;46.20
15983;DHT22;14442;50.196;8.096;2022-11-20T08:35:18;21.00;46.30
15983;DHT22;14442;50.196;8.096;2022-11-20T08:37:46;21.00;46.40
15983;DHT22;14442;50.196;8.096;2022-11-20T08:40:13;21.00;46.40
15983;DHT22;14442;50.196;8.096;2022-11-20T08:42:47;21.00;46.40
15983;DHT22;14442;50.196;8.096;2022-11-20T08:45:14;21.00;46.60
15983;DHT22;14442;50.196;8.096;2022-11-20T08:47:41;21.00;46.50
15983;DHT22;14442;50.196;8.096;2022-11-20T08:50:08;21.00;46.60
15983;DHT22;14442;50.196;8.096;2022-11-20T08:52:35;21.00;46.50
15983;DHT22;14442;50.196;8.096;2022-11-20T08:55:03;21.00;46.10
15983;DHT22;14442;50.196;8.096;2022-11-20T08:57:31;21.00;46.60
15983;DHT22;14442;50.196;8.096;2022-11-20T08:59:59;21.00;46.60
15983;DHT22;14442;50.196;8.096;2022-11-20T09:02:26;21.00;46.70
15983;DHT22;14442;50.196;8.096;2022-11-20T09:04:53;21.00;46.70
15983;DHT22;14442;50.196;8.096;2022-11-20T09:07:20;21.00;46.60
15983;DHT22;14442;50.196;8.096;2022-11-20T09:09:47;21.00;46.70
15983;DHT22;14442;50.196;8.096;2022-11-20T09:12:14;21.00;46.70
15983;DHT22;14442;50.196;8.096;2022-11-20T09:14:41;20.90;46.70
15983;DHT22;14442;50.196;8.096;2022-11-20T09:17:09;21.00;46.70
15983;DHT22;14442;50.196;8.096;2022-11-20T09:19:38;21.00;46.80
15983;DHT22;14442;50.196;8.096;2022-11-20T09:22:05;21.00;46.80
15983;DHT22;14442;50.196;8.096;2022-11-20T09:24:32;21.00;46.90
15983;DHT22;14442;50.196;8.096;2022-11-20T09:27:04;21.00;47.00
15983;DHT22;14442;50.196;8.096;2022-11-20T09:29:30;21.00;46.70
15983;DHT22;14442;50.196;8.096;2022-11-20T09:31:57;21.00;46.70
15983;DHT22;14442;50.196;8.096;2022-11-20T09:34:25;21.00;46.50
15983;DHT22;14442;50.196;8.096;2022-11-20T09:36:52;21.00;46.50
15983;DHT22;14442;50.196;8.096;2022-11-20T09:39:19;21.00;46.40
15983;DHT22;14442;50.196;8.096;2022-11-20T09:41:58;21.00;46.40
15983;DHT22;14442;50.196;8.096;2022-11-20T09:44:40;21.00;46.40
15983;DHT22;14442;50.196;8.096;2022-11-20T09:47:16;21.00;46.40
15983;DHT22;14442;50.196;8.096;2022-11-20T09:49:58;21.00;46.40
15983;DHT22;14442;50.196;8.096;2022-11-20T09:52:32;21.10;46.40
15983;DHT22;14442;50.196;8.096;2022-11-20T09:55:01;21.00;46.30
15983;DHT22;14442;50.196;8.096;2022-11-20T09:57:34;21.00;46.30
15983;DHT22;14442;50.196;8.096;2022-11-20T10:00:04;21.00;46.30
15983;DHT22;14442;50.196;8.096;2022-11-20T10:02:39;21.00;46.30
15983;DHT22;14442;50.196;8.096;2022-11-20T10:05:15;21.00;46.40
15983;DHT22;14442;50.196;8.096;2022-11-20T10:07:48;20.90;46.30
15983;DHT22;14442;50.196;8.096;2022-11-20T10:10:29;20.90;46.40
15983;DHT22;14442;50.196;8.096;2022-11-20T10:13:12;20.90;46.40
15983;DHT22;14442;50.196;8.096;2022-11-20T10:15:47;20.90;46.40
15983;DHT22;14442;50.196;8.096;2022-11-20T10:18:27;20.90;46.50
15983;DHT22;14442;50.196;8.096;2022-11-20T10:21:07;20.90;46.50
15983;DHT22;14442;50.196;8.096;2022-11-20T10:24:08;20.80;46.50
15983;DHT22;14442;50.196;8.096;2022-11-20T10:26:45;20.90;46.70
15983;DHT22;14442;50.196;8.096;2022-11-20T10:29:17;20.90;46.70
15983;DHT22;14442;50.196;8.096;2022-11-20T10:31:45;20.90;46.80
15983;DHT22;14442;50.196;8.096;2022-11-20T10:34:20;20.90;47.10
15983;DHT22;14442;50.196;8.096;2022-11-20T10:36:54;21.00;47.40
15983;DHT22;14442;50.196;8.096;2022-11-20T10:39:27;21.00;47.60
15983;DHT22;14442;50.196;8.096;2022-11-20T10:41:56;21.00;48.10
15983;DHT22;14442;50.196;8.096;2022-11-20T10:44:27;21.00;48.00
15983;DHT22;14442;50.196;8.096;2022-11-20T10:47:13;20.90;47.90
15983;DHT22;14442;50.196;8.096;2022-11-20T10:49:41;20.90;47.90
15983;DHT22;14442;50.196;8.096;2022-11-20T10:52:16;21.00;48.10
15983;DHT22;14442;50.196;8.096;2022-11-20T10:54:49;21.00;48.10
15983;DHT22;14442;50.196;8.096;2022-11-20T10:57:27;20.90;48.00
15983;DHT22;14442;50.196;8.096;2022-11-20T11:00:02;20.90;48.00
15983;DHT22;14442;50.196;8.096;2022-11-20T11:02:35;21.00;48.80
15983;DHT22;14442;50.196;8.096;2022-11-20T11:05:13;21.00;48.00
15983;DHT22;14442;50.196;8.096;2022-11-20T11:07:42;21.00;48.10
15983;DHT22;14442;50.196;8.096;2022-11-20T11:10:15;20.90;48.10
15983;DHT22;14442;50.196;8.096;2022-11-20T11:12:44;20.90;48.00
15983;DHT22;14442;50.196;8.096;2022-11-20T11:15:15;21.00;48.10
15983;DHT22;14442;50.196;8.096;2022-11-20T11:17:50;20.90;48.10
15983;DHT22;14442;50.196;8.096;2022-11-20T11:20:18;20.90;48.00
15983;DHT22;14442;50.196;8.096;2022-11-20T11:22:49;21.00;48.10
15983;DHT22;14442;50.196;8.096;2022-11-20T11:25:28;21.00;48.20
15983;DHT22;14442;50.196;8.096;2022-11-20T11:27:57;21.00;48.10
15983;DHT22;14442;50.196;8.096;2022-11-20T11:30:26;21.00;48.20
15983;DHT22;14442;50.196;8.096;2022-11-20T11:33:03;21.00;48.10
15983;DHT22;14442;50.196;8.096;2022-11-20T11:35:31;21.00;48.10
15983;DHT22;14442;50.196;8.096;2022-11-20T11:38:05;21.00;48.40
15983;DHT22;14442;50.196;8.096;2022-11-20T11:40:34;21.00;48.30
15983;DHT22;14442;50.196;8.096;2022-11-20T11:43:05;21.00;48.40
15983;DHT22;14442;50.196;8.096;2022-11-20T11:45:53;21.00;48.20
15983;DHT22;14442;50.196;8.096;2022-11-20T11:48:20;21.00;48.10
15983;DHT22;14442;50.196;8.096;2022-11-20T11:50:48;20.90;48.00
15983;DHT22;14442;50.196;8.096;2022-11-20T11:53:18;20.90;48.20
15983;DHT22;14442;50.196;8.096;2022-11-20T11:55:49;20.90;48.00
15983;DHT22;14442;50.196;8.096;2022-11-20T11:58:33;20.90;47.90
15983;DHT22;14442;50.196;8.096;2022-11-20T12:01:04;20.80;47.60
15983;DHT22;14442;50.196;8.096;2022-11-20T12:03:35;20.80;47.60
15983;DHT22;14442;50.196;8.096;2022-11-20T12:06:06;20.70;47.60
15983;DHT22;14442;50.196;8.096;2022-11-20T12:08:43;20.70;47.60
15983;DHT22;14442;50.196;8.096;2022-11-20T12:11:14;20.60;47.40
15983;DHT22;14442;50.196;8.096;2022-11-20T12:13:48;20.60;47.50
15983;DHT22;14442;50.196;8.096;2022-11-20T12:16:18;20.70;47.30
15983;DHT22;14442;50.196;8.096;2022-11-20T12:18:46;20.70;47.10
15983;DHT22;14442;50.196;8.096;2022-11-20T12:21:27;20.90;47.10
15983;DHT22;14442;50.196;8.096;2022-11-20T12:24:16;21.00;47.00
15983;DHT22;14442;50.196;8.096;2022-11-20T12:26:58;21.10;47.20
15983;DHT22;14442;50.196;8.096;2022-11-20T12:29:36;21.10;47.60
15983;DHT22;14442;50.196;8.096;2022-11-20T12:32:28;21.10;47.50
15983;DHT22;14442;50.196;8.096;2022-11-20T12:35:03;21.10;47.70
15983;DHT22;14442;50.196;8.096;2022-11-20T12:37:37;21.20;47.70
15983;DHT22;14442;50.196;8.096;2022-11-20T12:40:19;21.20;47.90
15983;DHT22;14442;50.196;8.096;2022-11-20T12:42:57;21.30;48.10
15983;DHT22;14442;50.196;8.096;2022-11-20T12:45:54;21.30;48.10
15983;DHT22;14442;50.196;8.096;2022-11-20T12:48:46;21.40;47.90
15983;DHT22;14442;50.196;8.096;2022-11-20T12:51:28;21.40;48.30
15983;DHT22;14442;50.196;8.096;2022-11-20T12:54:37;21.40;48.30
15983;DHT22;14442;50.196;8.096;2022-11-20T12:57:15;21.40;48.00
15983;DHT22;14442;50.196;8.096;2022-11-20T12:59:58;21.50;48.10
15983;DHT22;14442;50.196;8.096;2022-11-20T13:02:30;21.50;48.20
15983;DHT22;14442;50.196;8.096;2022-11-20T13:05:14;21.50;48.10
15983;DHT22;14442;50.196;8.096;2022-11-20T13:07:45;21.50;48.10
15983;DHT22;14442;50.196;8.096;2022-11-20T13:10:18;21.60;48.10
15983;DHT22;14442;50.196;8.096;2022-11-20T13:12:51;21.50;48.30
15983;DHT22;14442;50.196;8.096;2022-11-20T13:15:34;21.60;48.50
15983;DHT22;14442;50.196;8.096;2022-11-20T13:18:04;21.60;48.20
15983;DHT22;14442;50.196;8.096;2022-11-20T13:20:35;21.60;48.20
15983;DHT22;14442;50.196;8.096;2022-11-20T13:23:02;21.60;48.40
15983;DHT22;14442;50.196;8.096;2022-11-20T13:25:30;21.60;48.60
15983;DHT22;14442;50.196;8.096;2022-11-20T13:28:00;21.60;48.50
15983;DHT22;14442;50.196;8.096;2022-11-20T13:30:28;21.60;48.50
15983;DHT22;14442;50.196;8.096;2022-11-20T13:32:57;21.60;48.00
15983;DHT22;14442;50.196;8.096;2022-11-20T13:35:30;21.70;48.00
15983;DHT22;14442;50.196;8.096;2022-11-20T13:38:06;21.60;47.80
15983;DHT22;14442;50.196;8.096;2022-11-20T13:40:35;21.70;47.70
15983;DHT22;14442;50.196;8.096;2022-11-20T13:43:21;21.60;47.80
15983;DHT22;14442;50.196;8.096;2022-11-20T13:45:56;21.60;47.70
15983;DHT22;14442;50.196;8.096;2022-11-20T13:48:26;21.70;47.80
15983;DHT22;14442;50.196;8.096;2022-11-20T13:51:03;21.60;47.80
15983;DHT22;14442;50.196;8.096;2022-11-20T13:53:57;21.60;47.80
15983;DHT22;14442;50.196;8.096;2022-11-20T13:56:34;21.60;47.90
15983;DHT22;14442;50.196;8.096;2022-11-20T13:59:10;21.60;47.90
15983;DHT22;14442;50.196;8.096;2022-11-20T14:01:38;21.70;48.00
15983;DHT22;14442;50.196;8.096;2022-11-20T14:04:07;21.70;48.00
15983;DHT22;14442;50.196;8.096;2022-11-20T14:06:41;21.70;48.20
15983;DHT22;14442;50.196;8.096;2022-11-20T14:09:11;21.60;48.00
15983;DHT22;14442;50.196;8.096;2022-11-20T14:11:46;21.70;48.20
15983;DHT22;14442;50.196;8.096;2022-11-20T14:14:17;21.70;48.10
15983;DHT22;14442;50.196;8.096;2022-11-20T14:16:44;21.70;48.00
15983;DHT22;14442;50.196;8.096;2022-11-20T14:19:24;21.70;48.00
15983;DHT22;14442;50.196;8.096;2022-11-20T14:21:53;21.70;48.00
15983;DHT22;14442;50.196;8.096;2022-11-20T14:24:22;21.70;48.00
15983;DHT22;14442;50.196;8.096;2022-11-20T14:26:49;21.70;48.00
15983;DHT22;14442;50.196;8.096;2022-11-20T14:29:19;21.70;48.00
15983;DHT22;14442;50.196;8.096;2022-11-20T14:31:50;21.70;47.90
15983;DHT22;14442;50.196;8.096;2022-11-20T14:34:20;21.70;48.00
15983;DHT22;14442;50.196;8.096;2022-11-20T14:36:47;21.70;48.10
15983;DHT22;14442;50.196;8.096;2022-11-20T14:39:20;21.70;48.30
15983;DHT22;14442;50.196;8.096;2022-11-20T14:41:50;21.70;48.30
15983;DHT22;14442;50.196;8.096;2022-11-20T14:44:21;21.70;48.40
15983;DHT22;14442;50.196;8.096;2022-11-20T14:46:50;21.70;48.40
15983;DHT22;14442;50.196;8.096;2022-11-20T14:49:18;21.60;48.40
15983;DHT22;14442;50.196;8.096;2022-11-20T14:51:44;21.50;48.10
15983;DHT22;14442;50.196;8.096;2022-11-20T14:54:13;21.50;48.20
15983;DHT22;14442;50.196;8.096;2022-11-20T14:56:40;21.40;48.00
15983;DHT22;14442;50.196;8.096;2022-11-20T14:59:08;21.30;48.00
15983;DHT22;14442;50.196;8.096;2022-11-20T15:01:36;21.30;48.00
15983;DHT22;14442;50.196;8.096;2022-11-20T15:04:06;21.20;47.90
15983;DHT22;14442;50.196;8.096;2022-11-20T15:06:34;21.20;47.80
15983;DHT22;14442;50.196;8.096;2022-11-20T15:09:03;21.10;47.60
15983;DHT22;14442;50.196;8.096;2022-11-20T15:11:32;21.10;47.40
15983;DHT22;14442;50.196;8.096;2022-11-20T15:14:03;21.10;47.30
15983;DHT22;14442;50.196;8.096;2022-11-20T15:16:31;21.10;47.20
15983;DHT22;14442;50.196;8.096;2022-11-20T15:19:00;21.00;47.10
15983;DHT22;14442;50.196;8.096;2022-11-20T15:21:27;21.00;47.10
15983;DHT22;14442;50.196;8.096;2022-11-20T15:23:54;20.90;47.00
15983;DHT22;14442;50.196;8.096;2022-11-20T15:26:24;21.00;47.00
15983;DHT22;14442;50.196;8.096;2022-11-20T15:28:51;20.90;47.00
15983;DHT22;14442;50.196;8.096;2022-11-20T15:31:20;20.90;47.00
15983;DHT22;14442;50.196;8.096;2022-11-20T15:33:48;20.80;46.80
15983;DHT22;14442;50.196;8.096;2022-11-20T15:36:16;20.90;46.90
15983;DHT22;14442;50.196;8.096;2022-11-20T15:38:43;20.80;46.70
15983;DHT22;14442;50.196;8.096;2022-11-20T15:41:10;20.80;46.80
15983;DHT22;14442;50.196;8.096;2022-11-20T15:43:36;20.80;46.70
15983;DHT22;14442;50.196;8.096;2022-11-20T15:46:06;20.80;46.70
15983;DHT22;14442;50.196;8.096;2022-11-20T15:48:38;20.80;46.70
15983;DHT22;14442;50.196;8.096;2022-11-20T15:51:11;20.70;46.70